createdAt,value
2023-05-05T00:01:00.774Z,5.75
2023-05-05T00:03:28.497Z,5.57
2023-05-05T00:05:56.157Z,5.15
2023-05-05T00:08:23.911Z,5.10
2023-05-05T00:10:51.966Z,5.32
2023-05-05T00:13:19.739Z,5.65
2023-05-05T00:15:47.763Z,5.75
2023-05-05T00:18:17.416Z,5.22
2023-05-05T00:20:46.752Z,6.13
2023-05-05T00:23:14.414Z,6.32
2023-05-05T00:25:41.963Z,5.68
2023-05-05T00:28:09.932Z,6.10
2023-05-05T00:30:37.675Z,5.90
2023-05-05T00:33:05.234Z,5.70
2023-05-05T00:35:34.199Z,5.70
2023-05-05T00:38:01.760Z,5.82
2023-05-05T00:40:29.650Z,5.60
2023-05-05T00:42:57.154Z,5.15
2023-05-05T00:45:24.929Z,5.93
2023-05-05T00:47:54.655Z,5.47
2023-05-05T00:50:23.691Z,5.57
2023-05-05T00:52:53.686Z,5.60
2023-05-05T00:55:21.675Z,6.03
2023-05-05T00:57:49.713Z,5.93
2023-05-05T01:00:17.985Z,5.90
2023-05-05T01:02:45.826Z,5.57
2023-05-05T01:05:14.407Z,5.93
2023-05-05T01:07:49.497Z,5.53
2023-05-05T01:10:23.439Z,6.53
2023-05-05T01:12:55.021Z,5.90
2023-05-05T01:15:29.763Z,5.97
2023-05-05T01:18:00.240Z,6.40
2023-05-05T01:20:30.181Z,6.28
2023-05-05T01:22:59.533Z,5.60
2023-05-05T01:25:49.014Z,5.80
2023-05-05T01:28:32.389Z,6.22
2023-05-05T01:31:21.577Z,5.88
2023-05-05T01:33:50.813Z,5.57
2023-05-05T01:36:22.798Z,6.10
2023-05-05T01:38:52.865Z,6.30
2023-05-05T01:41:24.078Z,6.38
2023-05-05T01:43:52.621Z,6.25
2023-05-05T01:46:21.711Z,6.07
2023-05-05T01:48:51.244Z,6.43
2023-05-05T01:51:20.315Z,6.47
2023-05-05T01:53:47.955Z,5.90
2023-05-05T01:56:16.378Z,6.47
2023-05-05T01:58:45.123Z,6.63
2023-05-05T02:01:13.804Z,6.53
2023-05-05T02:03:42.622Z,6.07
2023-05-05T02:06:12.284Z,5.93
2023-05-05T02:08:40.685Z,6.70
2023-05-05T02:11:10.038Z,6.45
2023-05-05T02:13:37.740Z,6.55
2023-05-05T02:16:05.776Z,6.45
2023-05-05T02:18:35.892Z,6.03
2023-05-05T02:21:03.601Z,6.50
2023-05-05T02:23:32.593Z,5.88
2023-05-05T02:26:03.869Z,6.32
2023-05-05T02:28:34.499Z,6.75
2023-05-05T02:31:02.280Z,7.28
2023-05-05T02:33:30.827Z,6.93
2023-05-05T02:35:58.716Z,6.45
2023-05-05T02:38:28.304Z,6.75
2023-05-05T02:40:59.153Z,6.63
2023-05-05T02:43:26.930Z,7.13
2023-05-05T02:45:54.498Z,6.13
2023-05-05T02:48:22.199Z,6.90
2023-05-05T02:50:49.674Z,6.55
2023-05-05T02:53:17.570Z,6.47
2023-05-05T02:55:50.161Z,6.60
2023-05-05T02:58:22.858Z,6.63
2023-05-05T03:00:53.825Z,6.20
2023-05-05T03:03:25.891Z,6.95
2023-05-05T03:05:55.899Z,7.10
2023-05-05T03:08:27.971Z,6.68
2023-05-05T03:11:00.028Z,6.43
2023-05-05T03:13:29.417Z,6.70
2023-05-05T03:15:57.966Z,6.43
2023-05-05T03:18:26.170Z,6.50
2023-05-05T03:20:54.383Z,6.80
2023-05-05T03:23:22.835Z,6.45
2023-05-05T03:25:51.932Z,6.25
2023-05-05T03:28:19.475Z,6.60
2023-05-05T03:30:48.373Z,6.88
2023-05-05T03:33:16.785Z,6.30
2023-05-05T03:35:44.302Z,6.47
2023-05-05T03:38:11.865Z,6.53
2023-05-05T03:40:44.101Z,6.38
2023-05-05T03:43:12.375Z,6.03
2023-05-05T03:45:39.900Z,7.07
2023-05-05T03:48:10.019Z,6.43
2023-05-05T03:50:37.707Z,6.38
2023-05-05T03:53:05.207Z,6.95
2023-05-05T03:55:32.786Z,6.78
2023-05-05T03:58:00.236Z,6.47
2023-05-05T04:00:28.258Z,6.93
2023-05-05T04:03:00.279Z,7.18
2023-05-05T04:05:29.218Z,6.30
2023-05-05T04:07:57.880Z,6.43
2023-05-05T04:10:25.805Z,6.80
2023-05-05T04:12:53.397Z,6.07
2023-05-05T04:15:21.027Z,6.40
2023-05-05T04:17:48.780Z,6.82
2023-05-05T04:20:16.427Z,6.88
2023-05-05T04:22:45.970Z,7.25
2023-05-05T04:25:13.822Z,6.82
2023-05-05T04:27:41.419Z,6.70
2023-05-05T04:30:10.756Z,5.97
2023-05-05T04:32:38.278Z,6.25
2023-05-05T04:35:06.209Z,6.28
2023-05-05T04:37:33.742Z,6.05
2023-05-05T04:40:02.674Z,6.53
2023-05-05T04:42:30.753Z,6.57
2023-05-05T04:44:58.325Z,6.80
2023-05-05T04:47:25.928Z,6.57
2023-05-05T04:49:55.270Z,6.55
2023-05-05T04:52:22.743Z,6.70
2023-05-05T04:54:50.498Z,6.78
2023-05-05T04:57:19.476Z,6.35
2023-05-05T04:59:47.163Z,7.28
2023-05-05T05:02:14.847Z,6.55
2023-05-05T05:04:42.545Z,6.18
2023-05-05T05:07:10.384Z,6.53
2023-05-05T05:09:37.886Z,6.63
2023-05-05T05:12:07.453Z,6.55
2023-05-05T05:14:38.798Z,6.32
2023-05-05T05:17:06.397Z,6.72
2023-05-05T05:19:34.100Z,6.60
2023-05-05T05:22:01.767Z,6.50
2023-05-05T05:24:30.019Z,6.80
2023-05-05T05:26:57.578Z,6.90
2023-05-05T05:29:25.338Z,6.95
2023-05-05T05:31:54.515Z,6.97
2023-05-05T05:34:22.172Z,6.80
2023-05-05T05:36:49.729Z,7.80
2023-05-05T05:39:17.438Z,7.57
2023-05-05T05:41:45.285Z,7.60
2023-05-05T05:44:12.980Z,8.07
2023-05-05T05:46:40.626Z,7.78
2023-05-05T05:49:09.663Z,8.40
2023-05-05T05:51:37.334Z,7.95
2023-05-05T05:54:05.002Z,7.32
2023-05-05T05:56:32.915Z,7.95
2023-05-05T05:59:01.492Z,7.70
2023-05-05T06:01:29.138Z,7.35
2023-05-05T06:03:56.897Z,7.32
2023-05-05T06:06:25.975Z,7.40
2023-05-05T06:08:53.676Z,7.32
2023-05-05T06:11:22.421Z,7.45
2023-05-05T06:13:50.011Z,7.60
2023-05-05T06:16:17.636Z,6.97
2023-05-05T06:18:45.320Z,6.97
2023-05-05T06:21:13.376Z,7.53
2023-05-05T06:23:42.281Z,7.90
2023-05-05T06:26:09.909Z,6.90
2023-05-05T06:28:37.858Z,6.93
2023-05-05T06:31:05.731Z,6.80
2023-05-05T06:33:33.957Z,6.82
2023-05-05T06:36:01.795Z,5.75
2023-05-05T06:38:29.494Z,6.93
2023-05-05T06:40:58.557Z,6.70
2023-05-05T06:43:26.158Z,6.68
2023-05-05T06:45:53.677Z,6.50
2023-05-05T06:48:21.378Z,6.57
2023-05-05T06:50:49.317Z,6.57
2023-05-05T06:53:17.114Z,6.68
2023-05-05T06:55:45.850Z,6.18
2023-05-05T06:58:14.996Z,6.47
2023-05-05T07:00:49.823Z,6.10
2023-05-05T07:03:17.815Z,6.45
2023-05-05T07:05:45.617Z,6.35
2023-05-05T07:08:13.889Z,5.78
2023-05-05T07:10:41.802Z,6.30
2023-05-05T07:13:09.657Z,6.22
2023-05-05T07:15:38.821Z,6.85
2023-05-05T07:18:06.494Z,6.90
2023-05-05T07:20:34.357Z,5.80
2023-05-05T07:23:02.050Z,5.90
2023-05-05T07:25:29.667Z,6.60
2023-05-05T07:27:57.434Z,6.03
2023-05-05T07:30:26.293Z,5.70
2023-05-05T07:32:56.820Z,5.30
2023-05-05T07:35:24.448Z,5.68
2023-05-05T07:37:52.168Z,5.63
2023-05-05T07:40:20.000Z,4.40
2023-05-05T07:42:48.382Z,4.30
2023-05-05T07:45:16.066Z,3.92
2023-05-05T07:47:43.897Z,4.10
2023-05-05T07:50:13.260Z,3.22
2023-05-05T07:55:11.762Z,3.58
2023-05-05T07:57:39.374Z,3.80
2023-05-05T08:00:07.865Z,3.55
2023-05-05T08:02:35.696Z,3.30
2023-05-05T08:05:03.449Z,3.83
2023-05-05T08:07:32.665Z,3.60
2023-05-05T08:10:00.223Z,3.33
2023-05-05T08:12:28.007Z,3.75
2023-05-05T08:14:55.583Z,3.92
2023-05-05T08:17:25.864Z,3.67
2023-05-05T08:19:53.687Z,3.47
2023-05-05T08:22:21.565Z,4.07
2023-05-05T08:24:50.615Z,4.00
2023-05-05T08:27:18.202Z,3.42
2023-05-05T08:29:45.751Z,3.38
2023-05-05T08:32:13.337Z,3.05
2023-05-05T08:34:41.014Z,3.08
2023-05-05T08:37:11.389Z,2.90
2023-05-05T08:39:39.415Z,2.97
2023-05-05T08:42:08.357Z,2.58
2023-05-05T08:44:35.923Z,2.85
2023-05-05T08:47:03.724Z,2.58
2023-05-05T08:49:32.671Z,3.67
2023-05-05T08:52:02.382Z,3.08
2023-05-05T08:54:31.979Z,4.13
2023-05-05T08:57:01.874Z,3.95
2023-05-05T08:59:32.874Z,3.33
2023-05-05T09:02:01.324Z,3.78
2023-05-05T09:04:29.570Z,3.85
2023-05-05T09:06:58.612Z,3.40
2023-05-05T09:09:26.339Z,3.30
2023-05-05T09:11:54.717Z,4.53
2023-05-05T09:14:25.055Z,3.92
2023-05-05T09:16:54.016Z,4.03
2023-05-05T09:19:21.655Z,3.50
2023-05-05T09:21:50.041Z,3.50
2023-05-05T09:24:18.803Z,3.70
2023-05-05T09:26:47.324Z,3.38
2023-05-05T09:29:18.768Z,3.40
2023-05-05T09:31:46.372Z,3.47
2023-05-05T09:34:18.204Z,3.38
2023-05-05T09:36:47.716Z,3.95
2023-05-05T09:39:18.121Z,3.75
2023-05-05T09:41:46.550Z,3.80
2023-05-05T09:44:16.097Z,2.88
2023-05-05T09:46:51.050Z,3.08
2023-05-05T09:49:23.474Z,2.85
2023-05-05T09:51:52.860Z,3.20
2023-05-05T09:54:24.332Z,2.83
2023-05-05T09:56:52.345Z,2.70
2023-05-05T09:59:20.607Z,3.05
2023-05-05T10:01:48.800Z,2.90
2023-05-05T10:04:28.514Z,2.88
2023-05-05T10:06:56.544Z,3.42
2023-05-05T10:09:24.151Z,3.13
2023-05-05T10:11:52.101Z,2.90
2023-05-05T10:14:19.957Z,2.78
2023-05-05T10:16:49.305Z,2.67
2023-05-05T10:19:17.417Z,2.50
2023-05-05T10:21:49.423Z,2.55
2023-05-05T10:24:18.875Z,3.47
2023-05-05T10:26:47.455Z,3.00
2023-05-05T10:29:18.418Z,2.92
2023-05-05T10:31:47.897Z,2.72
2023-05-05T10:34:19.227Z,2.90
2023-05-05T10:36:48.867Z,2.95
2023-05-05T10:39:17.321Z,2.70
2023-05-05T10:41:45.204Z,2.60
2023-05-05T10:44:16.217Z,2.80
2023-05-05T10:46:44.219Z,2.80
2023-05-05T10:49:14.631Z,2.40
2023-05-05T10:51:47.382Z,2.60
2023-05-05T10:54:22.457Z,2.60
2023-05-05T10:56:51.145Z,2.85
2023-05-05T10:59:39.619Z,2.60
2023-05-05T11:02:19.074Z,2.60
2023-05-05T11:05:04.116Z,3.00
2023-05-05T11:07:32.611Z,3.08
2023-05-05T11:10:02.465Z,3.10
2023-05-05T11:12:30.546Z,2.83
2023-05-05T11:15:13.590Z,2.72
2023-05-05T11:17:47.610Z,2.90
2023-05-05T11:20:15.233Z,3.10
2023-05-05T11:23:00.701Z,3.00
2023-05-05T11:25:47.190Z,3.78
2023-05-05T11:28:17.252Z,3.00
2023-05-05T11:31:11.969Z,2.83
2023-05-05T11:33:42.494Z,2.97
2023-05-05T11:39:20.822Z,3.47
2023-05-05T11:42:10.438Z,3.00
2023-05-05T11:44:40.085Z,3.38
2023-05-05T11:47:33.943Z,3.05
2023-05-05T11:50:18.492Z,3.17
2023-05-05T11:52:46.677Z,2.80
2023-05-05T11:55:14.425Z,2.85
2023-05-05T11:57:42.285Z,3.50
2023-05-05T12:00:11.955Z,3.30
2023-05-05T12:02:39.814Z,3.17
2023-05-05T12:05:07.990Z,2.50
2023-05-05T12:07:35.668Z,2.85
2023-05-05T12:10:03.188Z,2.60
2023-05-05T12:12:38.072Z,2.55
2023-05-05T12:15:06.675Z,2.60
2023-05-05T12:17:40.850Z,2.42
2023-05-05T12:20:10.266Z,1.90
2023-05-05T12:22:38.265Z,2.17
2023-05-05T12:25:07.037Z,2.15
2023-05-05T12:27:35.467Z,1.77
2023-05-05T12:30:13.953Z,1.58
2023-05-05T12:32:43.393Z,1.75
2023-05-05T12:35:11.749Z,2.00
2023-05-05T12:37:39.833Z,1.85
2023-05-05T12:40:09.063Z,1.80
2023-05-05T12:42:40.265Z,1.58
2023-05-05T12:45:09.238Z,2.10
2023-05-05T12:47:37.317Z,1.90
2023-05-05T12:50:06.883Z,1.80
2023-05-05T12:52:44.194Z,1.83
2023-05-05T12:55:12.406Z,1.80
2023-05-05T12:57:41.173Z,2.00
2023-05-05T13:00:15.572Z,2.00
2023-05-05T13:02:43.369Z,1.77
2023-05-05T13:05:12.455Z,1.98
2023-05-05T13:07:50.671Z,1.90
2023-05-05T13:10:18.484Z,2.17
2023-05-05T13:12:46.167Z,1.95
2023-05-05T13:15:14.469Z,3.10
2023-05-05T13:17:42.357Z,2.13
2023-05-05T13:20:11.202Z,1.90
2023-05-05T13:22:40.324Z,1.83
2023-05-05T13:25:08.320Z,1.80
2023-05-05T13:27:37.736Z,1.88
2023-05-05T13:30:06.121Z,2.25
2023-05-05T13:32:35.782Z,1.80
2023-05-05T13:35:04.111Z,2.13
2023-05-05T13:37:31.689Z,1.70
2023-05-05T13:40:01.409Z,1.90
2023-05-05T13:42:29.302Z,2.30
2023-05-05T13:44:57.109Z,1.95
2023-05-05T13:47:25.086Z,2.05
2023-05-05T13:49:52.704Z,2.25
2023-05-05T13:52:20.240Z,2.20
2023-05-05T13:54:48.141Z,1.80
2023-05-05T13:57:17.460Z,1.85
2023-05-05T13:59:45.072Z,1.70
2023-05-05T14:02:12.723Z,2.00
2023-05-05T14:04:41.432Z,1.50
2023-05-05T14:07:08.942Z,1.80
2023-05-05T14:09:47.234Z,1.95
2023-05-05T14:12:14.880Z,2.10
2023-05-05T14:14:44.036Z,1.88
2023-05-05T14:17:11.786Z,2.00
2023-05-05T14:19:45.553Z,1.98
2023-05-05T14:22:13.118Z,1.90
2023-05-05T14:24:40.792Z,2.20
2023-05-05T14:27:08.588Z,2.08
2023-05-05T14:29:36.167Z,1.83
2023-05-05T14:32:05.263Z,1.90
2023-05-05T14:34:32.825Z,1.92
2023-05-05T14:37:00.389Z,1.80
2023-05-05T14:39:28.081Z,1.83
2023-05-05T14:41:55.655Z,1.92
2023-05-05T14:44:25.638Z,1.75
2023-05-05T14:46:53.610Z,2.00
2023-05-05T14:49:22.617Z,1.80
2023-05-05T14:51:50.227Z,1.90
2023-05-05T14:54:27.251Z,1.85
2023-05-05T14:56:55.934Z,2.15
2023-05-05T14:59:23.555Z,2.40
2023-05-05T15:01:51.170Z,1.75
2023-05-05T15:04:18.766Z,1.88
2023-05-05T15:06:47.792Z,2.00
2023-05-05T15:09:20.294Z,2.08
2023-05-05T15:11:47.987Z,2.10
2023-05-05T15:14:15.542Z,1.92
2023-05-05T15:16:43.084Z,2.20
2023-05-05T15:19:10.700Z,2.95
2023-05-05T15:21:38.279Z,2.08
2023-05-05T15:24:07.805Z,1.83
2023-05-05T15:26:37.626Z,2.25
2023-05-05T15:29:05.310Z,2.13
2023-05-05T15:31:32.960Z,1.85
2023-05-05T15:34:00.688Z,2.10
2023-05-05T15:36:28.935Z,2.22
2023-05-05T15:38:56.702Z,2.40
2023-05-05T15:41:27.111Z,2.00
2023-05-05T15:43:54.797Z,2.08
2023-05-05T15:46:22.545Z,2.22
2023-05-05T15:48:50.202Z,2.38
2023-05-05T15:51:18.245Z,2.30
2023-05-05T15:53:49.614Z,2.17
2023-05-05T15:56:17.473Z,2.13
2023-05-05T15:58:48.457Z,2.55
2023-05-05T16:01:16.533Z,2.20
2023-05-05T16:03:44.379Z,2.17
2023-05-05T16:06:13.063Z,2.20
2023-05-05T16:08:42.537Z,2.67
2023-05-05T16:11:10.076Z,2.50
2023-05-05T16:13:39.095Z,2.40
2023-05-05T16:16:10.198Z,3.10
2023-05-05T16:18:45.346Z,2.20
2023-05-05T16:21:12.891Z,2.90
2023-05-05T16:23:45.251Z,2.10
2023-05-05T16:26:14.446Z,2.58
2023-05-05T16:28:42.327Z,2.67
2023-05-05T16:31:11.538Z,3.00
2023-05-05T16:33:41.026Z,2.70
2023-05-05T16:36:09.718Z,3.38
2023-05-05T16:38:37.337Z,3.40
2023-05-05T16:41:06.643Z,3.38
2023-05-05T16:43:34.363Z,3.33
2023-05-05T16:46:02.107Z,3.70
2023-05-05T16:48:31.123Z,3.40
2023-05-05T16:50:58.839Z,3.45
2023-05-05T16:53:26.515Z,3.45
2023-05-05T16:55:54.277Z,3.17
2023-05-05T16:58:22.386Z,3.80
2023-05-05T17:00:50.007Z,4.22
2023-05-05T17:03:17.648Z,4.65
2023-05-05T17:05:49.780Z,4.95
2023-05-05T17:08:17.858Z,4.47
2023-05-05T17:10:46.327Z,4.18
2023-05-05T17:13:14.990Z,4.22
2023-05-05T17:15:44.242Z,4.93
2023-05-05T17:18:11.724Z,4.20
2023-05-05T17:20:39.260Z,4.47
2023-05-05T17:23:09.327Z,4.68
2023-05-05T17:25:36.900Z,3.67
2023-05-05T17:28:04.598Z,3.67
2023-05-05T17:30:34.956Z,3.90
2023-05-05T17:33:05.560Z,3.50
2023-05-05T17:35:33.266Z,3.53
2023-05-05T17:38:00.862Z,3.70
2023-05-05T17:40:29.877Z,2.65
2023-05-05T17:42:57.410Z,3.22
2023-05-05T17:45:24.989Z,2.65
2023-05-05T17:47:52.638Z,2.58
2023-05-05T17:50:20.243Z,2.63
2023-05-05T17:52:47.901Z,3.15
2023-05-05T17:55:15.540Z,3.03
2023-05-05T17:57:44.480Z,2.83
2023-05-05T18:00:12.553Z,2.70
2023-05-05T18:02:40.524Z,2.88
2023-05-05T18:05:09.098Z,3.05
2023-05-05T18:07:38.503Z,3.30
2023-05-05T18:10:08.241Z,3.45
2023-05-05T18:12:35.854Z,3.40
2023-05-05T18:15:05.620Z,3.33
2023-05-05T18:17:33.141Z,3.67
2023-05-05T18:20:00.728Z,3.60
2023-05-05T18:22:28.433Z,3.15
2023-05-05T18:24:58.998Z,3.20
2023-05-05T18:27:27.278Z,3.45
2023-05-05T18:29:54.918Z,3.30
2023-05-05T18:32:23.974Z,3.10
2023-05-05T18:34:51.620Z,2.95
2023-05-05T18:37:19.221Z,2.58
2023-05-05T18:39:46.858Z,2.85
2023-05-05T18:42:14.848Z,3.42
2023-05-05T18:44:43.118Z,3.67
2023-05-05T18:47:10.776Z,3.58
2023-05-05T18:49:39.626Z,3.85
2023-05-05T18:52:07.317Z,3.70
2023-05-05T18:54:36.326Z,5.97
2023-05-05T18:57:05.495Z,6.22
2023-05-05T18:59:33.013Z,5.10
2023-05-05T19:02:00.592Z,3.42
2023-05-05T19:04:31.691Z,3.50
2023-05-05T19:07:00.944Z,3.40
2023-05-05T19:09:28.637Z,3.30
2023-05-05T19:11:56.263Z,3.22
2023-05-05T19:14:23.978Z,3.55
2023-05-05T19:16:51.615Z,3.40
2023-05-05T19:19:19.269Z,3.90
2023-05-05T19:21:46.912Z,3.40
2023-05-05T19:24:15.780Z,3.58
2023-05-05T19:26:44.130Z,3.78
2023-05-05T19:29:11.645Z,3.90
2023-05-05T19:31:39.317Z,3.65
2023-05-05T19:34:07.112Z,4.07
2023-05-05T19:36:35.187Z,3.80
2023-05-05T19:39:03.191Z,4.22
2023-05-05T19:41:32.645Z,4.50
2023-05-05T19:44:00.146Z,6.07
2023-05-05T19:46:27.805Z,5.47
2023-05-05T19:48:55.771Z,5.28
2023-05-05T19:51:23.690Z,6.05
2023-05-05T19:53:51.302Z,6.68
2023-05-05T19:56:18.829Z,9.25
2023-05-05T19:58:59.017Z,11.55
2023-05-05T20:01:27.068Z,11.55
2023-05-05T20:03:55.594Z,7.82
2023-05-05T20:06:23.263Z,6.47
2023-05-05T20:08:50.898Z,6.78
2023-05-05T20:11:19.766Z,5.03
2023-05-05T20:13:47.393Z,5.75
2023-05-05T20:16:16.364Z,5.22
2023-05-05T20:18:43.878Z,5.45
2023-05-05T20:21:11.587Z,5.70
2023-05-05T20:23:39.160Z,4.80
2023-05-05T20:26:07.664Z,5.28
2023-05-05T20:28:35.304Z,5.50
2023-05-05T20:31:03.057Z,5.50
2023-05-05T20:33:31.932Z,5.13
2023-05-05T20:35:59.468Z,5.72
2023-05-05T20:38:27.078Z,5.63
2023-05-05T20:40:54.681Z,5.70
2023-05-05T20:43:22.297Z,4.95
2023-05-05T20:45:49.773Z,4.65
2023-05-05T20:48:17.369Z,4.75
2023-05-05T20:50:46.242Z,4.82
2023-05-05T20:53:15.259Z,4.80
2023-05-05T20:55:43.016Z,5.35
2023-05-05T20:58:10.589Z,5.10
2023-05-05T21:00:38.143Z,7.10
2023-05-05T21:03:06.152Z,14.07
2023-05-05T21:05:33.715Z,6.28
2023-05-05T21:08:02.667Z,5.95
2023-05-05T21:10:32.953Z,6.20
2023-05-05T21:13:00.558Z,5.50
2023-05-05T21:15:28.281Z,5.25
2023-05-05T21:17:56.072Z,5.85
2023-05-05T21:20:23.633Z,5.75
2023-05-05T21:22:51.193Z,6.18
2023-05-05T21:25:21.282Z,6.25
2023-05-05T21:27:49.097Z,6.72
2023-05-05T21:30:17.278Z,6.50
2023-05-05T21:32:45.293Z,6.30
2023-05-05T21:35:12.974Z,6.28
2023-05-05T21:37:40.885Z,5.97
2023-05-05T21:40:11.280Z,6.63
2023-05-05T21:42:40.486Z,6.28
2023-05-05T21:45:08.585Z,6.10
2023-05-05T21:47:36.416Z,5.88
2023-05-05T21:50:04.132Z,6.10
2023-05-05T21:52:32.170Z,5.63
2023-05-05T21:54:59.724Z,7.57
2023-05-05T21:57:27.239Z,7.38
2023-05-05T21:59:56.104Z,9.02
2023-05-05T22:02:23.899Z,8.43
2023-05-05T22:04:51.874Z,8.05
2023-05-05T22:07:19.526Z,6.95
2023-05-05T22:09:47.096Z,7.78
2023-05-05T22:12:14.767Z,8.57
2023-05-05T22:14:42.349Z,8.63
2023-05-05T22:17:11.920Z,9.70
2023-05-05T22:19:39.437Z,8.10
2023-05-05T22:22:06.968Z,8.00
2023-05-05T22:24:34.531Z,7.80
2023-05-05T22:27:02.086Z,7.97
2023-05-05T22:29:29.637Z,8.07
2023-05-05T22:31:57.366Z,7.53
2023-05-05T22:34:26.371Z,6.80
2023-05-05T22:36:53.854Z,6.68
2023-05-05T22:39:21.453Z,7.47
2023-05-05T22:41:49.088Z,7.97
2023-05-05T22:44:16.654Z,7.80
2023-05-05T22:46:44.338Z,7.97
2023-05-05T22:49:12.071Z,7.70
2023-05-05T22:51:41.398Z,8.10
2023-05-05T22:54:08.877Z,9.35
2023-05-05T22:56:36.970Z,8.82
2023-05-05T22:59:05.432Z,9.20
2023-05-05T23:01:34.321Z,8.85
2023-05-05T23:04:02.021Z,9.85
2023-05-05T23:06:29.700Z,9.82
2023-05-05T23:08:58.650Z,10.40
2023-05-05T23:11:26.661Z,10.45
2023-05-05T23:13:54.283Z,11.07
2023-05-05T23:16:21.949Z,11.00
2023-05-05T23:18:49.455Z,10.65
2023-05-05T23:21:17.047Z,10.93
2023-05-05T23:23:44.605Z,9.90
2023-05-05T23:26:14.032Z,8.45
2023-05-05T23:28:41.759Z,8.63
2023-05-05T23:31:09.615Z,10.52
2023-05-05T23:33:37.107Z,9.07
2023-05-05T23:36:05.164Z,9.32
2023-05-05T23:38:32.827Z,8.55
2023-05-05T23:41:00.303Z,9.50
2023-05-05T23:43:29.121Z,8.95
2023-05-05T23:45:56.660Z,8.48
2023-05-05T23:48:24.281Z,9.60
2023-05-05T23:50:53.053Z,9.25
2023-05-05T23:53:20.562Z,9.13
2023-05-05T23:55:48.112Z,9.40
2023-05-05T23:58:15.567Z,9.30
